createdAt,value
2017-11-28T00:00:11.294Z,7.54
2017-11-28T00:00:37.419Z,7.56
2017-11-28T00:01:03.582Z,7.56
2017-11-28T00:01:29.698Z,7.61
2017-11-28T00:01:55.826Z,7.58
2017-11-28T00:02:21.946Z,7.54
2017-11-28T00:02:48.060Z,7.51
2017-11-28T00:03:14.181Z,7.53
2017-11-28T00:03:40.304Z,7.51
2017-11-28T00:04:06.425Z,7.58
2017-11-28T00:04:32.556Z,7.42
2017-11-28T00:04:58.672Z,7.43
2017-11-28T00:05:24.792Z,7.43
2017-11-28T00:05:50.921Z,7.48
2017-11-28T00:06:17.045Z,7.38
2017-11-28T00:06:43.165Z,7.4
2017-11-28T00:07:09.287Z,7.43
2017-11-28T00:07:35.405Z,7.45
2017-11-28T00:08:01.537Z,7.45
2017-11-28T00:08:27.673Z,7.45
2017-11-28T00:08:53.797Z,7.47
2017-11-28T00:09:19.915Z,7.53
2017-11-28T00:09:46.040Z,7.48
2017-11-28T00:10:12.162Z,7.45
2017-11-28T00:10:38.282Z,7.43
2017-11-28T00:11:04.427Z,7.47
2017-11-28T00:11:30.555Z,7.53
2017-11-28T00:11:56.665Z,7.45
2017-11-28T00:12:22.794Z,7.45
2017-11-28T00:12:48.933Z,7.54
2017-11-28T00:13:15.054Z,7.48
2017-11-28T00:13:41.207Z,7.53
2017-11-28T00:14:07.329Z,7.51
2017-11-28T00:14:33.442Z,7.51
2017-11-28T00:14:59.563Z,7.43
2017-11-28T00:15:25.692Z,7.45
2017-11-28T00:15:51.808Z,7.43
2017-11-28T00:16:17.933Z,7.51
2017-11-28T00:16:44.052Z,7.51
2017-11-28T00:17:10.173Z,7.48
2017-11-28T00:17:36.296Z,7.38
2017-11-28T00:18:02.419Z,7.47
2017-11-28T00:18:28.545Z,7.42
2017-11-28T00:18:54.665Z,7.45
2017-11-28T00:19:20.787Z,7.39
2017-11-28T00:19:46.905Z,7.43
2017-11-28T00:20:13.032Z,7.38
2017-11-28T00:20:39.145Z,7.42
2017-11-28T00:21:05.272Z,7.42
2017-11-28T00:21:31.392Z,7.4
2017-11-28T00:21:57.516Z,7.45
2017-11-28T00:22:23.665Z,7.4
2017-11-28T00:22:49.779Z,7.4
2017-11-28T00:23:15.907Z,7.42
2017-11-28T00:23:42.026Z,7.43
2017-11-28T00:24:08.147Z,7.25
2017-11-28T00:24:34.268Z,7.35
2017-11-28T00:25:00.387Z,7.33
2017-11-28T00:25:26.518Z,7.28
2017-11-28T00:25:52.632Z,7.42
2017-11-28T00:26:18.756Z,7.28
2017-11-28T00:26:44.877Z,7.28
2017-11-28T00:27:10.997Z,7.31
2017-11-28T00:27:37.127Z,7.31
2017-11-28T00:28:03.249Z,7.33
2017-11-28T00:28:29.366Z,7.32
2017-11-28T00:28:55.486Z,7.39
2017-11-28T00:29:21.617Z,7.4
2017-11-28T00:29:47.729Z,7.4
2017-11-28T00:30:13.874Z,7.43
2017-11-28T00:30:40.002Z,7.42
2017-11-28T00:31:06.119Z,7.43
2017-11-28T00:31:32.262Z,7.38
2017-11-28T00:31:58.370Z,7.4
2017-11-28T00:32:24.508Z,7.39
2017-11-28T00:32:50.632Z,7.39
2017-11-28T00:33:16.750Z,7.43
2017-11-28T00:33:42.877Z,7.39
2017-11-28T00:34:09.021Z,7.39
2017-11-28T00:34:35.141Z,7.45
2017-11-28T00:35:01.269Z,7.39
2017-11-28T00:35:27.389Z,7.29
2017-11-28T00:35:53.525Z,7.47
2017-11-28T00:36:19.656Z,7.28
2017-11-28T00:36:45.813Z,7.35
2017-11-28T00:37:11.940Z,7.33
2017-11-28T00:37:38.067Z,7.4
2017-11-28T00:38:04.204Z,7.35
2017-11-28T00:38:30.330Z,7.25
2017-11-28T00:38:56.449Z,7.28
2017-11-28T00:39:22.565Z,7.43
2017-11-28T00:39:48.697Z,7.51
2017-11-28T00:40:14.817Z,7.32
2017-11-28T00:40:40.935Z,7.31
2017-11-28T00:41:07.060Z,7.24
2017-11-28T00:41:33.185Z,7.4
2017-11-28T00:41:59.303Z,7.4
2017-11-28T00:42:25.427Z,7.36
2017-11-28T00:42:51.556Z,7.42
2017-11-28T00:43:17.672Z,7.38
2017-11-28T00:43:43.805Z,7.47
2017-11-28T00:44:09.925Z,7.39
2017-11-28T00:44:36.088Z,7.47
2017-11-28T00:45:02.206Z,7.38
2017-11-28T00:45:28.325Z,7.4
2017-11-28T00:45:54.447Z,7.48
2017-11-28T00:46:20.570Z,7.33
2017-11-28T00:46:46.692Z,7.29
2017-11-28T00:47:12.811Z,7.31
2017-11-28T00:47:38.940Z,7.28
2017-11-28T00:48:05.076Z,7.45
2017-11-28T00:48:31.212Z,7.35
2017-11-28T00:48:57.342Z,7.28
2017-11-28T00:49:23.465Z,7.31
2017-11-28T00:49:49.600Z,7.32
2017-11-28T00:50:15.706Z,7.36
2017-11-28T00:50:41.847Z,7.33
2017-11-28T00:51:08.000Z,7.31
2017-11-28T00:51:34.107Z,7.25
2017-11-28T00:52:00.230Z,7.28
2017-11-28T00:52:26.349Z,7.33
2017-11-28T00:52:52.471Z,7.4
2017-11-28T00:53:18.599Z,7.48
2017-11-28T00:53:44.714Z,7.43
2017-11-28T00:54:10.839Z,7.32
2017-11-28T00:54:36.984Z,7.4
2017-11-28T00:55:03.107Z,7.35
2017-11-28T00:55:29.225Z,7.28
2017-11-28T00:55:55.347Z,7.28
2017-11-28T00:56:21.492Z,7.31
2017-11-28T00:56:47.608Z,7.4
2017-11-28T00:57:13.735Z,7.28
2017-11-28T00:57:39.855Z,7.24
2017-11-28T00:58:05.973Z,7.28
2017-11-28T00:58:32.099Z,7.24
2017-11-28T00:58:58.217Z,7.28
2017-11-28T00:59:24.339Z,7.31
2017-11-28T00:59:50.479Z,7.31
2017-11-28T01:00:16.587Z,7.29
2017-11-28T01:00:42.713Z,7.38
2017-11-28T01:01:08.852Z,7.31
2017-11-28T01:01:34.977Z,7.29
2017-11-28T01:02:01.091Z,7.29
2017-11-28T01:02:27.212Z,7.33
2017-11-28T01:02:53.338Z,7.32
2017-11-28T01:03:19.463Z,7.31
2017-11-28T01:03:45.584Z,7.29
2017-11-28T01:04:11.703Z,7.2
2017-11-28T01:04:37.823Z,7.17
2017-11-28T01:05:03.975Z,7.28
2017-11-28T01:05:30.066Z,7.33
2017-11-28T01:05:56.193Z,7.29
2017-11-28T01:06:22.315Z,7.25
2017-11-28T01:06:48.437Z,7.23
2017-11-28T01:07:14.556Z,7.28
2017-11-28T01:07:40.682Z,7.24
2017-11-28T01:08:06.825Z,7.36
2017-11-28T01:08:32.941Z,7.29
2017-11-28T01:08:59.060Z,7.28
2017-11-28T01:09:25.176Z,7.35
2017-11-28T01:09:51.298Z,7.38
2017-11-28T01:10:17.455Z,7.28
2017-11-28T01:10:43.574Z,7.28
2017-11-28T01:11:09.720Z,7.38
2017-11-28T01:11:35.840Z,7.35
2017-11-28T01:12:01.964Z,7.36
2017-11-28T01:12:28.099Z,7.42
2017-11-28T01:12:54.211Z,7.33
2017-11-28T01:13:20.353Z,7.33
2017-11-28T01:13:46.468Z,7.45
2017-11-28T01:14:12.593Z,7.31
2017-11-28T01:14:38.726Z,7.33
2017-11-28T01:15:04.838Z,7.31
2017-11-28T01:15:30.960Z,7.35
2017-11-28T01:15:57.111Z,7.23
2017-11-28T01:16:23.242Z,7.42
2017-11-28T01:16:49.365Z,7.4
2017-11-28T01:17:15.490Z,7.28
2017-11-28T01:17:41.634Z,7.39
2017-11-28T01:18:07.751Z,7.32
2017-11-28T01:18:33.879Z,7.43
2017-11-28T01:19:00.024Z,7.29
2017-11-28T01:19:26.147Z,7.25
2017-11-28T01:19:52.272Z,7.31
2017-11-28T01:20:18.393Z,7.18
2017-11-28T01:20:44.510Z,7.29
2017-11-28T01:21:10.625Z,7.31
2017-11-28T01:21:36.770Z,7.24
2017-11-28T01:22:02.884Z,7.35
2017-11-28T01:22:29.011Z,7.25
2017-11-28T01:22:55.133Z,7.21
2017-11-28T01:23:21.250Z,7.2
2017-11-28T01:23:47.368Z,7.15
2017-11-28T01:24:13.495Z,7.17
2017-11-28T01:24:39.616Z,7.2
2017-11-28T01:25:05.726Z,7.25
2017-11-28T01:25:31.845Z,7.28
2017-11-28T01:25:57.969Z,7.36
2017-11-28T01:26:24.097Z,7.28
2017-11-28T01:26:50.219Z,7.25
2017-11-28T01:27:16.346Z,7.39
2017-11-28T01:27:42.463Z,7.43
2017-11-28T01:28:08.578Z,7.5
2017-11-28T01:28:34.706Z,7.42
2017-11-28T01:29:00.822Z,7.39
2017-11-28T01:29:26.942Z,7.45
2017-11-28T01:29:53.059Z,7.45
2017-11-28T01:30:19.183Z,7.31
2017-11-28T01:30:45.334Z,7.28
2017-11-28T01:31:11.452Z,7.32
2017-11-28T01:31:37.568Z,7.29
2017-11-28T01:32:03.695Z,7.31
2017-11-28T01:32:29.816Z,7.15
2017-11-28T01:32:55.932Z,7.2
2017-11-28T01:33:22.053Z,7.2
2017-11-28T01:33:48.176Z,7.15
2017-11-28T01:34:14.295Z,7.28
2017-11-28T01:34:40.432Z,7.29
2017-11-28T01:35:06.556Z,7.23
2017-11-28T01:35:32.676Z,7.31
2017-11-28T01:35:58.789Z,7.23
2017-11-28T01:36:24.916Z,7.28
2017-11-28T01:36:51.032Z,7.14
2017-11-28T01:37:17.157Z,7.24
2017-11-28T01:37:43.303Z,7.17
2017-11-28T01:38:09.420Z,7.24
2017-11-28T01:38:35.543Z,7.31
2017-11-28T01:39:01.660Z,7.21
2017-11-28T01:39:27.775Z,7.29
2017-11-28T01:39:53.901Z,7.29
2017-11-28T01:40:20.023Z,7.25
2017-11-28T01:40:46.139Z,7.28
2017-11-28T01:41:12.271Z,7.43
2017-11-28T01:41:38.407Z,7.4
2017-11-28T01:42:04.537Z,7.35
2017-11-28T01:42:30.655Z,7.29
2017-11-28T01:42:56.796Z,7.28
2017-11-28T01:43:22.923Z,7.4
2017-11-28T01:43:49.045Z,7.32
2017-11-28T01:44:15.167Z,7.36
2017-11-28T01:44:41.289Z,7.29
2017-11-28T01:45:07.409Z,7.32
2017-11-28T01:45:33.549Z,7.28
2017-11-28T01:45:59.669Z,7.42
2017-11-28T01:46:25.793Z,7.33
2017-11-28T01:46:51.907Z,7.29
2017-11-28T01:47:18.030Z,7.21
2017-11-28T01:47:44.151Z,7.21
2017-11-28T01:48:10.274Z,7.21
2017-11-28T01:48:36.389Z,7.23
2017-11-28T01:49:02.505Z,7.14
2017-11-28T01:49:28.630Z,7.15
2017-11-28T01:49:54.754Z,7.15
2017-11-28T01:50:20.875Z,7.07
2017-11-28T01:50:46.993Z,7.18
2017-11-28T01:51:13.121Z,7.17
2017-11-28T01:51:39.246Z,7.25
2017-11-28T01:52:05.369Z,7.13
2017-11-28T01:52:31.493Z,7.17
2017-11-28T01:52:57.611Z,7.15
2017-11-28T01:53:23.732Z,7.2
2017-11-28T01:53:49.855Z,7.18
2017-11-28T01:54:16.002Z,7.31
2017-11-28T01:54:42.153Z,7.17
2017-11-28T01:55:08.282Z,7.15
2017-11-28T01:55:34.386Z,7.23
2017-11-28T01:56:00.502Z,7.2
2017-11-28T01:56:26.634Z,7.15
2017-11-28T01:56:52.742Z,7.21
2017-11-28T01:57:18.868Z,7.2
2017-11-28T01:57:44.994Z,7.17
2017-11-28T01:58:11.115Z,7.21
2017-11-28T01:58:37.236Z,7.13
2017-11-28T01:59:03.354Z,7.2
2017-11-28T01:59:29.470Z,7.15
2017-11-28T01:59:55.623Z,7.02
2017-11-28T02:00:21.819Z,7.1
2017-11-28T02:00:47.943Z,7.17
2017-11-28T02:01:14.064Z,7.1
2017-11-28T02:01:40.186Z,7.21
2017-11-28T02:02:06.302Z,7.18
2017-11-28T02:02:32.421Z,7.15
2017-11-28T02:02:58.549Z,7.13
2017-11-28T02:03:24.663Z,7.05
2017-11-28T02:03:50.782Z,7.05
2017-11-28T02:04:16.909Z,7.02
2017-11-28T02:04:43.031Z,6.97
2017-11-28T02:05:09.148Z,7.02
2017-11-28T02:05:35.292Z,6.95
2017-11-28T02:06:01.416Z,7.03
2017-11-28T02:06:27.530Z,7.02
2017-11-28T02:06:53.655Z,6.97
2017-11-28T02:07:19.770Z,6.87
2017-11-28T02:07:45.895Z,6.97
2017-11-28T02:08:12.011Z,6.97
2017-11-28T02:08:38.129Z,7
2017-11-28T02:09:04.253Z,6.99
2017-11-28T02:09:30.376Z,6.97
2017-11-28T02:09:56.520Z,6.97
2017-11-28T02:10:22.633Z,6.95
2017-11-28T02:10:48.754Z,7.03
2017-11-28T02:11:14.869Z,6.99
2017-11-28T02:11:40.999Z,6.99
2017-11-28T02:12:07.125Z,7.02
2017-11-28T02:12:33.270Z,7
2017-11-28T02:12:59.383Z,6.99
2017-11-28T02:13:25.506Z,6.93
2017-11-28T02:13:51.630Z,7
2017-11-28T02:14:17.746Z,6.93
2017-11-28T02:14:43.867Z,6.97
2017-11-28T02:15:09.979Z,6.97
2017-11-28T02:15:36.104Z,6.96
2017-11-28T02:16:02.233Z,6.89
2017-11-28T02:16:28.352Z,6.92
2017-11-28T02:16:54.472Z,6.92
2017-11-28T02:17:20.594Z,6.88
2017-11-28T02:17:46.720Z,6.75
2017-11-28T02:18:12.835Z,6.85
2017-11-28T02:18:38.964Z,6.89
2017-11-28T02:19:05.078Z,6.75
2017-11-28T02:19:31.200Z,6.82
2017-11-28T02:19:57.331Z,6.72
2017-11-28T02:20:23.454Z,6.82
2017-11-28T02:20:50.070Z,6.77
2017-11-28T02:21:17.327Z,6.78
2017-11-28T02:21:45.031Z,6.85
2017-11-28T02:22:12.292Z,6.78
2017-11-28T02:22:40.056Z,6.81
2017-11-28T02:23:07.885Z,6.77
2017-11-28T02:23:35.533Z,6.87
2017-11-28T02:24:03.320Z,6.81
2017-11-28T02:24:30.699Z,6.88
2017-11-28T02:24:58.970Z,6.97
2017-11-28T02:25:26.921Z,6.97
2017-11-28T02:25:54.552Z,6.99
2017-11-28T02:26:22.492Z,6.99
2017-11-28T02:26:50.811Z,7
2017-11-28T02:27:18.959Z,6.95
2017-11-28T02:27:47.130Z,6.99
2017-11-28T02:28:15.016Z,6.99
2017-11-28T02:28:42.193Z,6.95
2017-11-28T02:29:08.321Z,6.96
2017-11-28T02:29:34.445Z,6.88
2017-11-28T02:30:00.562Z,6.89
2017-11-28T02:30:26.711Z,6.92
2017-11-28T02:30:52.850Z,6.96
2017-11-28T02:31:19.103Z,6.96
2017-11-28T02:31:45.230Z,6.92
2017-11-28T02:32:11.363Z,6.85
2017-11-28T02:32:37.495Z,6.85
2017-11-28T02:33:03.626Z,6.89
2017-11-28T02:33:29.829Z,6.88
2017-11-28T02:33:56.031Z,6.88
2017-11-28T02:34:22.141Z,6.89
2017-11-28T02:34:48.268Z,6.87
2017-11-28T02:35:14.384Z,6.85
2017-11-28T02:35:40.509Z,6.87
2017-11-28T02:36:06.668Z,6.88
2017-11-28T02:36:32.784Z,6.93
2017-11-28T02:36:58.907Z,6.89
2017-11-28T02:37:25.030Z,6.85
2017-11-28T02:37:51.152Z,6.95
2017-11-28T02:38:17.276Z,6.95
2017-11-28T02:38:43.405Z,6.88
2017-11-28T02:39:09.539Z,6.92
2017-11-28T02:39:35.703Z,6.88
2017-11-28T02:40:01.818Z,6.92
2017-11-28T02:40:27.962Z,6.92
2017-11-28T02:40:54.074Z,6.92
2017-11-28T02:41:20.202Z,6.87
2017-11-28T02:41:46.339Z,6.82
2017-11-28T02:42:12.456Z,6.72
2017-11-28T02:42:38.602Z,6.72
2017-11-28T02:43:04.782Z,6.78
2017-11-28T02:43:30.925Z,6.74
2017-11-28T02:43:57.071Z,6.81
2017-11-28T02:44:23.184Z,6.74
2017-11-28T02:44:49.333Z,6.7
2017-11-28T02:45:15.468Z,6.77
2017-11-28T02:45:41.593Z,6.72
2017-11-28T02:46:07.737Z,6.74
2017-11-28T02:46:33.857Z,6.62
2017-11-28T02:46:59.980Z,6.72
2017-11-28T02:47:26.095Z,6.79
2017-11-28T02:47:52.220Z,6.74
2017-11-28T02:48:18.336Z,6.85
2017-11-28T02:48:44.468Z,6.87
2017-11-28T02:49:10.576Z,6.96
2017-11-28T02:49:36.696Z,6.96
2017-11-28T02:50:02.820Z,6.97
2017-11-28T02:50:28.942Z,7.03
2017-11-28T02:50:55.056Z,7.07
2017-11-28T02:51:21.182Z,7.14
2017-11-28T02:51:47.304Z,7.14
2017-11-28T02:52:13.422Z,7.13
2017-11-28T02:52:39.565Z,7.18
2017-11-28T02:53:05.683Z,7.17
2017-11-28T02:53:31.808Z,7.18
2017-11-28T02:53:57.920Z,7.18
2017-11-28T02:54:24.045Z,7.1
2017-11-28T02:54:50.187Z,7.14
2017-11-28T02:55:16.305Z,7.13
2017-11-28T02:55:42.422Z,6.96
2017-11-28T02:56:08.572Z,6.89
2017-11-28T02:56:34.694Z,6.96
2017-11-28T02:57:00.809Z,6.99
2017-11-28T02:57:26.935Z,6.99
2017-11-28T02:57:53.053Z,6.96
2017-11-28T02:58:19.172Z,6.95
2017-11-28T02:58:45.300Z,7.03
2017-11-28T02:59:11.415Z,7.15
2017-11-28T02:59:37.539Z,7.07
2017-11-28T03:00:03.654Z,7.13
2017-11-28T03:00:29.786Z,7.18
2017-11-28T03:00:55.903Z,7.1
2017-11-28T03:01:22.043Z,7.05
2017-11-28T03:01:48.169Z,7.15
2017-11-28T03:02:14.282Z,7.2
2017-11-28T03:02:40.406Z,7.15
2017-11-28T03:03:06.532Z,7.21
2017-11-28T03:03:32.644Z,7.2
2017-11-28T03:03:58.770Z,7.21
2017-11-28T03:04:24.887Z,7.14
2017-11-28T03:04:51.021Z,7.21
2017-11-28T03:05:17.156Z,7.13
2017-11-28T03:05:43.299Z,7.18
2017-11-28T03:06:09.418Z,7.25
2017-11-28T03:06:35.541Z,7.21
2017-11-28T03:07:01.675Z,7.2
2017-11-28T03:07:27.799Z,7.17
2017-11-28T03:07:53.920Z,7.11
2017-11-28T03:08:20.031Z,7.24
2017-11-28T03:08:46.163Z,7.06
2017-11-28T03:09:12.280Z,7.11
2017-11-28T03:09:38.404Z,7.11
2017-11-28T03:10:04.519Z,7.24
2017-11-28T03:10:30.639Z,7.25
2017-11-28T03:10:56.764Z,7.17
2017-11-28T03:11:22.879Z,7.18
2017-11-28T03:11:49.009Z,7.23
2017-11-28T03:12:15.125Z,7.17
2017-11-28T03:12:41.240Z,7.2
2017-11-28T03:13:07.361Z,7.2
2017-11-28T03:13:33.475Z,7.2
2017-11-28T03:13:59.596Z,7.23
2017-11-28T03:14:25.722Z,7.14
2017-11-28T03:14:51.844Z,7.17
2017-11-28T03:15:17.984Z,7.25
2017-11-28T03:15:44.127Z,7.25
2017-11-28T03:16:10.243Z,7.18
2017-11-28T03:16:36.363Z,7.18
2017-11-28T03:17:02.496Z,7.2
2017-11-28T03:17:28.602Z,7.15
2017-11-28T03:17:54.750Z,7.13
2017-11-28T03:18:20.866Z,7.15
2017-11-28T03:18:47.000Z,7.15
2017-11-28T03:19:13.115Z,7.13
2017-11-28T03:19:39.274Z,7.21
2017-11-28T03:20:05.396Z,7.15
2017-11-28T03:20:31.526Z,7.13
2017-11-28T03:20:57.643Z,7.07
2017-11-28T03:21:23.761Z,7.07
2017-11-28T03:21:49.890Z,7.07
2017-11-28T03:22:16.011Z,7.17
2017-11-28T03:22:42.129Z,7.13
2017-11-28T03:23:08.270Z,7.14
2017-11-28T03:23:34.386Z,7.07
2017-11-28T03:24:00.511Z,7
2017-11-28T03:24:26.652Z,7.05
2017-11-28T03:24:52.767Z,7.14
2017-11-28T03:25:18.887Z,7.1
2017-11-28T03:25:45.025Z,7.03
2017-11-28T03:26:11.127Z,7
2017-11-28T03:26:37.248Z,6.96
2017-11-28T03:27:03.367Z,6.99
2017-11-28T03:27:29.487Z,6.95
2017-11-28T03:27:55.603Z,7.05
2017-11-28T03:28:21.729Z,6.97
2017-11-28T03:28:47.850Z,6.93
2017-11-28T03:29:13.979Z,6.96
2017-11-28T03:29:40.121Z,6.96
2017-11-28T03:30:06.275Z,6.93
2017-11-28T03:30:32.439Z,6.96
2017-11-28T03:30:58.560Z,6.93
2017-11-28T03:31:24.692Z,6.88
2017-11-28T03:31:50.817Z,6.88
2017-11-28T03:32:16.938Z,6.97
2017-11-28T03:32:43.058Z,6.97
2017-11-28T03:33:09.169Z,6.97
2017-11-28T03:33:35.287Z,7
2017-11-28T03:34:01.413Z,7.03
2017-11-28T03:34:27.535Z,7.02
2017-11-28T03:34:53.656Z,7.03
2017-11-28T03:35:19.780Z,6.99
2017-11-28T03:35:45.904Z,7
2017-11-28T03:36:12.024Z,7
2017-11-28T03:36:38.141Z,7
2017-11-28T03:37:04.260Z,6.93
2017-11-28T03:37:30.382Z,6.97
2017-11-28T03:37:56.508Z,7
2017-11-28T03:38:22.646Z,7.02
2017-11-28T03:38:48.769Z,7.05
2017-11-28T03:39:14.911Z,6.96
2017-11-28T03:39:41.029Z,6.97
2017-11-28T03:40:07.152Z,7.05
2017-11-28T03:40:33.267Z,6.99
2017-11-28T03:40:59.409Z,6.89
2017-11-28T03:41:25.534Z,6.85
2017-11-28T03:41:51.669Z,6.93
2017-11-28T03:42:17.793Z,6.95
2017-11-28T03:42:43.917Z,6.85
2017-11-28T03:43:10.045Z,6.92
2017-11-28T03:43:36.158Z,6.93
2017-11-28T03:44:02.274Z,6.99
2017-11-28T03:44:28.399Z,6.96
2017-11-28T03:44:54.516Z,6.95
2017-11-28T03:45:20.635Z,6.93
2017-11-28T03:45:46.760Z,6.81
2017-11-28T03:46:12.893Z,6.92
2017-11-28T03:46:39.000Z,6.96
2017-11-28T03:47:05.124Z,6.92
2017-11-28T03:47:31.242Z,6.92
2017-11-28T03:47:57.360Z,6.95
2017-11-28T03:48:23.489Z,6.85
2017-11-28T03:48:49.603Z,6.77
2017-11-28T03:49:15.732Z,6.77
2017-11-28T03:49:41.855Z,6.78
2017-11-28T03:50:07.976Z,6.78
2017-11-28T03:50:34.093Z,6.84
2017-11-28T03:51:00.215Z,6.85
2017-11-28T03:51:26.331Z,6.82
2017-11-28T03:51:52.449Z,6.82
2017-11-28T03:52:18.568Z,6.87
2017-11-28T03:52:44.695Z,6.84
2017-11-28T03:53:10.863Z,6.82
2017-11-28T03:53:36.959Z,6.79
2017-11-28T03:54:03.084Z,6.82
2017-11-28T03:54:29.207Z,6.87
2017-11-28T03:54:55.349Z,6.88
2017-11-28T03:55:21.462Z,6.81
2017-11-28T03:55:47.601Z,6.92
2017-11-28T03:56:13.702Z,6.93
2017-11-28T03:56:39.844Z,6.75
2017-11-28T03:57:05.965Z,6.82
2017-11-28T03:57:32.081Z,6.79
2017-11-28T03:57:58.204Z,6.78
2017-11-28T03:58:24.333Z,6.75
2017-11-28T03:58:50.458Z,6.78
2017-11-28T03:59:16.595Z,6.75
2017-11-28T03:59:42.720Z,6.74
2017-11-28T04:00:08.844Z,6.88
2017-11-28T04:00:34.961Z,6.84
2017-11-28T04:01:01.086Z,6.85
2017-11-28T04:01:27.205Z,6.84
2017-11-28T04:01:53.328Z,6.77
2017-11-28T04:02:19.446Z,6.77
2017-11-28T04:02:45.577Z,6.87
2017-11-28T04:03:11.686Z,6.88
2017-11-28T04:03:37.809Z,6.89
2017-11-28T04:04:03.926Z,6.77
2017-11-28T04:04:30.068Z,6.87
2017-11-28T04:04:56.195Z,6.81
2017-11-28T04:05:22.315Z,6.92
2017-11-28T04:05:48.431Z,6.85
2017-11-28T04:06:14.556Z,6.87
2017-11-28T04:06:40.674Z,6.88
2017-11-28T04:07:06.792Z,6.95
2017-11-28T04:07:32.915Z,6.97
2017-11-28T04:07:59.041Z,6.92
2017-11-28T04:08:25.180Z,6.87
2017-11-28T04:08:51.299Z,6.82
2017-11-28T04:09:17.457Z,6.85
2017-11-28T04:09:43.564Z,6.87
2017-11-28T04:10:09.691Z,6.92
2017-11-28T04:10:35.806Z,6.96
2017-11-28T04:11:01.925Z,6.85
2017-11-28T04:11:28.063Z,6.92
2017-11-28T04:11:54.201Z,6.88
2017-11-28T04:12:20.336Z,6.87
2017-11-28T04:12:46.453Z,6.87
2017-11-28T04:13:12.571Z,6.81
2017-11-28T04:13:38.696Z,6.87
2017-11-28T04:14:04.817Z,6.78
2017-11-28T04:14:30.932Z,6.92
2017-11-28T04:14:57.056Z,6.87
2017-11-28T04:15:23.182Z,6.96
2017-11-28T04:15:49.299Z,7
2017-11-28T04:16:15.432Z,6.92
2017-11-28T04:16:41.548Z,6.87
2017-11-28T04:17:07.661Z,6.87
2017-11-28T04:17:33.784Z,6.87
2017-11-28T04:17:59.913Z,6.99
2017-11-28T04:18:26.058Z,6.93
2017-11-28T04:18:52.178Z,6.95
2017-11-28T04:19:18.297Z,6.82
2017-11-28T04:19:44.420Z,6.89
2017-11-28T04:20:10.539Z,6.87
2017-11-28T04:20:36.664Z,6.81
2017-11-28T04:21:02.779Z,6.77
2017-11-28T04:21:28.902Z,6.88
2017-11-28T04:21:55.021Z,6.88
2017-11-28T04:22:21.145Z,6.87
2017-11-28T04:22:47.292Z,6.92
2017-11-28T04:23:13.449Z,6.82
2017-11-28T04:23:39.567Z,6.84
2017-11-28T04:24:05.694Z,6.87
2017-11-28T04:24:31.817Z,6.96
2017-11-28T04:24:57.970Z,6.93
2017-11-28T04:25:24.108Z,6.92
2017-11-28T04:25:50.215Z,6.93
2017-11-28T04:26:16.355Z,6.97
2017-11-28T04:26:42.482Z,6.99
2017-11-28T04:27:08.602Z,6.89
2017-11-28T04:27:34.719Z,6.89
2017-11-28T04:28:00.864Z,7
2017-11-28T04:28:26.978Z,6.96
2017-11-28T04:28:53.098Z,7
2017-11-28T04:29:19.221Z,7
2017-11-28T04:29:45.341Z,7.07
2017-11-28T04:30:11.469Z,7
2017-11-28T04:30:37.584Z,7.05
2017-11-28T04:31:03.706Z,7.02
2017-11-28T04:31:29.843Z,7.03
2017-11-28T04:31:55.965Z,6.99
2017-11-28T04:32:22.091Z,7.06
2017-11-28T04:32:48.208Z,7.11
2017-11-28T04:33:14.328Z,7.03
2017-11-28T04:33:40.448Z,6.95
2017-11-28T04:34:06.570Z,6.92
2017-11-28T04:34:32.696Z,6.87
2017-11-28T04:34:58.815Z,6.82
2017-11-28T04:35:24.941Z,6.81
2017-11-28T04:35:51.064Z,6.77
2017-11-28T04:36:17.179Z,6.82
2017-11-28T04:36:43.303Z,6.74
2017-11-28T04:37:09.416Z,6.78
2017-11-28T04:37:35.589Z,6.75
2017-11-28T04:38:01.711Z,6.67
2017-11-28T04:38:27.830Z,6.75
2017-11-28T04:38:53.958Z,6.81
2017-11-28T04:39:20.076Z,6.77
2017-11-28T04:39:46.202Z,6.87
2017-11-28T04:40:12.313Z,6.69
2017-11-28T04:40:38.437Z,6.75
2017-11-28T04:41:04.561Z,6.77
2017-11-28T04:41:30.676Z,6.75
2017-11-28T04:41:56.801Z,6.79
2017-11-28T04:42:22.923Z,6.77
2017-11-28T04:42:49.051Z,6.78
2017-11-28T04:43:15.168Z,6.79
2017-11-28T04:43:41.276Z,6.72
2017-11-28T04:44:07.403Z,6.78
2017-11-28T04:44:33.519Z,6.84
2017-11-28T04:44:59.644Z,6.7
2017-11-28T04:45:25.761Z,6.66
2017-11-28T04:45:51.903Z,6.67
2017-11-28T04:46:18.008Z,6.7
2017-11-28T04:46:44.124Z,6.74
2017-11-28T04:47:10.250Z,6.78
2017-11-28T04:47:36.368Z,6.78
2017-11-28T04:48:02.487Z,6.78
2017-11-28T04:48:28.609Z,6.78
2017-11-28T04:48:54.726Z,6.75
2017-11-28T04:49:20.873Z,6.78
2017-11-28T04:49:46.993Z,6.72
2017-11-28T04:50:13.111Z,6.6
2017-11-28T04:50:39.230Z,6.7
2017-11-28T04:51:05.355Z,6.79
2017-11-28T04:51:31.478Z,6.77
2017-11-28T04:51:57.594Z,6.78
2017-11-28T04:52:23.717Z,6.79
2017-11-28T04:52:49.835Z,6.74
2017-11-28T04:53:15.958Z,6.81
2017-11-28T04:53:42.076Z,6.78
2017-11-28T04:54:08.192Z,6.82
2017-11-28T04:54:34.316Z,6.62
2017-11-28T04:55:00.436Z,6.74
2017-11-28T04:55:26.551Z,6.75
2017-11-28T04:55:52.673Z,6.81
2017-11-28T04:56:18.797Z,6.77
2017-11-28T04:56:44.922Z,6.77
2017-11-28T04:57:11.036Z,6.72
2017-11-28T04:57:37.152Z,6.79
2017-11-28T04:58:03.299Z,6.88
2017-11-28T04:58:29.417Z,6.85
2017-11-28T04:58:55.539Z,6.92
2017-11-28T04:59:21.661Z,6.82
2017-11-28T04:59:47.783Z,6.84
2017-11-28T05:00:13.900Z,6.79
2017-11-28T05:00:40.020Z,6.84
2017-11-28T05:01:06.138Z,6.93
2017-11-28T05:01:32.264Z,6.88
2017-11-28T05:01:58.380Z,6.89
2017-11-28T05:02:24.498Z,6.95
2017-11-28T05:02:50.623Z,6.89
2017-11-28T05:03:16.743Z,6.93
2017-11-28T05:03:42.854Z,6.85
2017-11-28T05:04:08.981Z,6.87
2017-11-28T05:04:35.102Z,6.81
2017-11-28T05:05:01.218Z,6.81
2017-11-28T05:05:27.349Z,6.74
2017-11-28T05:05:53.473Z,6.78
2017-11-28T05:06:19.595Z,6.77
2017-11-28T05:06:45.717Z,6.78
2017-11-28T05:07:11.835Z,6.82
2017-11-28T05:07:37.959Z,6.78
2017-11-28T05:08:04.076Z,6.78
2017-11-28T05:08:30.200Z,6.78
2017-11-28T05:08:56.339Z,6.87
2017-11-28T05:09:22.465Z,6.92
2017-11-28T05:09:48.583Z,6.97
2017-11-28T05:10:14.707Z,7
2017-11-28T05:10:40.834Z,6.96
2017-11-28T05:11:06.951Z,6.84
2017-11-28T05:11:33.067Z,6.92
2017-11-28T05:11:59.192Z,6.78
2017-11-28T05:12:25.306Z,6.79
2017-11-28T05:12:51.432Z,6.81
2017-11-28T05:13:17.576Z,6.79
2017-11-28T05:13:43.694Z,6.75
2017-11-28T05:14:09.836Z,6.77
2017-11-28T05:14:35.951Z,6.77
2017-11-28T05:15:02.073Z,6.75
2017-11-28T05:15:28.198Z,6.77
2017-11-28T05:15:54.318Z,6.81
2017-11-28T05:16:20.443Z,6.81
2017-11-28T05:16:46.565Z,6.75
2017-11-28T05:17:12.701Z,6.81
2017-11-28T05:17:38.825Z,6.78
2017-11-28T05:18:04.942Z,6.79
2017-11-28T05:18:31.058Z,6.77
2017-11-28T05:18:57.181Z,6.75
2017-11-28T05:19:23.304Z,6.74
2017-11-28T05:19:49.420Z,6.74
2017-11-28T05:20:15.564Z,6.62
2017-11-28T05:20:41.685Z,6.62
2017-11-28T05:21:07.814Z,6.72
2017-11-28T05:21:33.927Z,6.69
2017-11-28T05:22:00.043Z,6.74
2017-11-28T05:22:26.168Z,6.78
2017-11-28T05:22:52.289Z,6.79
2017-11-28T05:23:18.425Z,6.72
2017-11-28T05:23:44.550Z,6.63
2017-11-28T05:24:10.671Z,6.75
2017-11-28T05:24:36.789Z,6.69
2017-11-28T05:25:02.913Z,6.77
2017-11-28T05:25:29.027Z,6.78
2017-11-28T05:25:55.166Z,6.77
2017-11-28T05:26:21.336Z,6.6
2017-11-28T05:26:47.448Z,6.6
2017-11-28T05:27:13.577Z,6.67
2017-11-28T05:27:39.699Z,6.75
2017-11-28T05:28:05.846Z,6.7
2017-11-28T05:28:31.977Z,6.77
2017-11-28T05:28:58.095Z,6.62
2017-11-28T05:29:24.224Z,6.72
2017-11-28T05:29:50.334Z,6.77
2017-11-28T05:30:16.458Z,6.79
2017-11-28T05:30:42.602Z,6.75
2017-11-28T05:31:08.715Z,6.79
2017-11-28T05:31:34.840Z,6.75
2017-11-28T05:32:00.962Z,6.81
2017-11-28T05:32:27.084Z,6.7
2017-11-28T05:32:53.200Z,6.72
2017-11-28T05:33:19.322Z,6.67
2017-11-28T05:33:45.472Z,6.7
2017-11-28T05:34:11.580Z,6.72
2017-11-28T05:34:37.706Z,6.77
2017-11-28T05:35:03.842Z,6.69
2017-11-28T05:35:29.965Z,6.72
2017-11-28T05:35:56.088Z,6.7
2017-11-28T05:36:22.206Z,6.74
2017-11-28T05:36:48.333Z,6.75
2017-11-28T05:37:14.450Z,6.78
2017-11-28T05:37:40.575Z,6.67
2017-11-28T05:38:06.694Z,6.69
2017-11-28T05:38:32.818Z,6.77
2017-11-28T05:38:58.932Z,6.81
2017-11-28T05:39:25.060Z,6.79
2017-11-28T05:39:51.188Z,6.77
2017-11-28T05:40:17.302Z,6.82
2017-11-28T05:40:43.421Z,6.75
2017-11-28T05:41:09.552Z,6.77
2017-11-28T05:41:35.670Z,6.84
2017-11-28T05:42:01.785Z,6.82
2017-11-28T05:42:27.904Z,6.77
2017-11-28T05:42:54.025Z,6.78
2017-11-28T05:43:20.142Z,6.79
2017-11-28T05:43:46.286Z,6.75
2017-11-28T05:44:12.426Z,6.74
2017-11-28T05:44:38.545Z,6.62
2017-11-28T05:45:04.669Z,6.67
2017-11-28T05:45:30.811Z,6.74
2017-11-28T05:45:56.929Z,6.7
2017-11-28T05:46:23.075Z,6.63
2017-11-28T05:46:49.193Z,6.75
2017-11-28T05:47:15.327Z,6.72
2017-11-28T05:47:41.455Z,6.75
2017-11-28T05:48:07.590Z,6.72
2017-11-28T05:48:33.713Z,6.78
2017-11-28T05:48:59.832Z,6.7
2017-11-28T05:49:25.959Z,6.7